sensor_id;sensor_type;location;lat;lon;timestamp;pressure;altitude;pressure_sealevel;temperature;humidity
35848;BME280;22332;51.954;20.118;2023-10-13T00:00:29;100184.80;;;13.16;86.78
35848;BME280;22332;51.954;20.118;2023-10-13T00:04:00;100183.65;;;13.19;86.84
35848;BME280;22332;51.954;20.118;2023-10-13T00:07:09;100188.20;;;13.20;86.87
35848;BME280;22332;51.954;20.118;2023-10-13T00:10:16;100183.45;;;13.19;86.77
35848;BME280;22332;51.954;20.118;2023-10-13T00:13:23;100184.46;;;13.18;86.69
35848;BME280;22332;51.954;20.118;2023-10-13T00:16:29;100190.17;;;13.13;86.65
35848;BME280;22332;51.954;20.118;2023-10-13T00:19:37;100180.66;;;13.09;86.67
35848;BME280;22332;51.954;20.118;2023-10-13T00:22:49;100179.98;;;13.05;86.54
35848;BME280;22332;51.954;20.118;2023-10-13T00:25:55;100179.28;;;13.00;86.41
35848;BME280;22332;51.954;20.118;2023-10-13T00:29:04;100184.45;;;12.95;86.23
35848;BME280;22332;51.954;20.118;2023-10-13T00:32:21;100195.03;;;12.88;86.15
35848;BME280;22332;51.954;20.118;2023-10-13T00:35:31;100195.86;;;12.79;86.17
35848;BME280;22332;51.954;20.118;2023-10-13T00:38:41;100197.52;;;12.71;85.99
35848;BME280;22332;51.954;20.118;2023-10-13T00:41:46;100198.34;;;12.63;86.15
35848;BME280;22332;51.954;20.118;2023-10-13T00:44:56;100186.90;;;12.62;86.27
35848;BME280;22332;51.954;20.118;2023-10-13T00:48:02;100195.77;;;12.61;86.10
35848;BME280;22332;51.954;20.118;2023-10-13T00:51:15;100197.29;;;12.51;86.33
35848;BME280;22332;51.954;20.118;2023-10-13T00:54:37;100190.50;;;12.53;86.51
35848;BME280;22332;51.954;20.118;2023-10-13T00:57:43;100189.00;;;12.54;86.50
35848;BME280;22332;51.954;20.118;2023-10-13T01:00:52;100176.73;;;12.55;86.44
35848;BME280;22332;51.954;20.118;2023-10-13T01:04:21;100178.39;;;12.56;86.53
35848;BME280;22332;51.954;20.118;2023-10-13T01:07:31;100188.23;;;12.56;86.68
35848;BME280;22332;51.954;20.118;2023-10-13T01:10:42;100192.82;;;12.60;86.75
35848;BME280;22332;51.954;20.118;2023-10-13T01:13:48;100194.95;;;12.66;86.75
35848;BME280;22332;51.954;20.118;2023-10-13T01:16:55;100199.06;;;12.73;86.77
35848;BME280;22332;51.954;20.118;2023-10-13T01:20:03;100196.62;;;12.77;86.67
35848;BME280;22332;51.954;20.118;2023-10-13T01:23:12;100197.83;;;12.79;86.61
35848;BME280;22332;51.954;20.118;2023-10-13T01:26:22;100202.95;;;12.80;86.71
35848;BME280;22332;51.954;20.118;2023-10-13T01:29:30;100200.90;;;12.81;86.70
35848;BME280;22332;51.954;20.118;2023-10-13T01:32:36;100207.79;;;12.81;86.77
35848;BME280;22332;51.954;20.118;2023-10-13T01:35:45;100208.73;;;12.83;86.73
35848;BME280;22332;51.954;20.118;2023-10-13T01:38:52;100212.39;;;12.83;86.56
35848;BME280;22332;51.954;20.118;2023-10-13T01:41:58;100210.11;;;12.83;86.81
35848;BME280;22332;51.954;20.118;2023-10-13T01:45:07;100211.27;;;12.85;86.86
35848;BME280;22332;51.954;20.118;2023-10-13T01:48:12;100208.77;;;12.87;86.89
35848;BME280;22332;51.954;20.118;2023-10-13T01:51:20;100203.64;;;12.88;86.90
35848;BME280;22332;51.954;20.118;2023-10-13T01:54:27;100206.05;;;12.87;87.02
35848;BME280;22332;51.954;20.118;2023-10-13T01:57:33;100208.92;;;12.90;86.99
35848;BME280;22332;51.954;20.118;2023-10-13T02:00:38;100210.30;;;12.92;86.94
35848;BME280;22332;51.954;20.118;2023-10-13T02:03:46;100208.89;;;12.94;86.96
35848;BME280;22332;51.954;20.118;2023-10-13T02:06:53;100208.79;;;12.95;86.93
35848;BME280;22332;51.954;20.118;2023-10-13T02:10:00;100208.85;;;12.94;86.89
35848;BME280;22332;51.954;20.118;2023-10-13T02:13:08;100210.33;;;12.94;86.97
35848;BME280;22332;51.954;20.118;2023-10-13T02:16:19;100206.88;;;12.94;86.91
35848;BME280;22332;51.954;20.118;2023-10-13T02:19:26;100209.23;;;12.94;86.94
35848;BME280;22332;51.954;20.118;2023-10-13T02:22:33;100208.86;;;12.96;86.87
35848;BME280;22332;51.954;20.118;2023-10-13T02:25:41;100218.55;;;12.97;87.02
35848;BME280;22332;51.954;20.118;2023-10-13T02:28:50;100217.48;;;12.93;86.99
35848;BME280;22332;51.954;20.118;2023-10-13T02:31:59;100212.34;;;12.92;87.15
35848;BME280;22332;51.954;20.118;2023-10-13T02:35:09;100198.98;;;12.93;86.99
35848;BME280;22332;51.954;20.118;2023-10-13T02:38:20;100196.76;;;12.97;87.13
35848;BME280;22332;51.954;20.118;2023-10-13T02:41:33;100198.16;;;13.01;87.19
35848;BME280;22332;51.954;20.118;2023-10-13T02:44:41;100199.23;;;13.01;87.17
35848;BME280;22332;51.954;20.118;2023-10-13T02:47:50;100202.92;;;13.00;87.18
35848;BME280;22332;51.954;20.118;2023-10-13T02:51:14;100202.92;;;12.98;87.30
35848;BME280;22332;51.954;20.118;2023-10-13T02:54:20;100207.34;;;13.00;87.33
35848;BME280;22332;51.954;20.118;2023-10-13T02:57:26;100202.83;;;12.99;87.32
35848;BME280;22332;51.954;20.118;2023-10-13T03:00:32;100195.41;;;13.01;87.43
35848;BME280;22332;51.954;20.118;2023-10-13T03:03:38;100198.70;;;13.04;87.41
35848;BME280;22332;51.954;20.118;2023-10-13T03:06:46;100210.31;;;13.02;87.27
35848;BME280;22332;51.954;20.118;2023-10-13T03:09:52;100209.86;;;12.98;87.42
35848;BME280;22332;51.954;20.118;2023-10-13T03:13:02;100207.28;;;12.99;87.66
35848;BME280;22332;51.954;20.118;2023-10-13T03:16:14;100208.88;;;13.01;87.69
35848;BME280;22332;51.954;20.118;2023-10-13T03:19:21;100205.26;;;13.01;87.73
35848;BME280;22332;51.954;20.118;2023-10-13T03:22:27;100208.07;;;13.03;87.70
35848;BME280;22332;51.954;20.118;2023-10-13T03:25:36;100206.15;;;13.06;87.67
35848;BME280;22332;51.954;20.118;2023-10-13T03:28:46;100206.15;;;13.06;87.65
35848;BME280;22332;51.954;20.118;2023-10-13T03:31:56;100206.30;;;13.04;87.75
35848;BME280;22332;51.954;20.118;2023-10-13T03:35:11;100207.99;;;13.05;87.83
35848;BME280;22332;51.954;20.118;2023-10-13T03:38:18;100210.48;;;13.06;87.78
35848;BME280;22332;51.954;20.118;2023-10-13T03:41:24;100213.02;;;13.07;87.82
35848;BME280;22332;51.954;20.118;2023-10-13T03:44:34;100213.55;;;13.08;87.84
35848;BME280;22332;51.954;20.118;2023-10-13T03:47:42;100212.09;;;13.07;87.83
35848;BME280;22332;51.954;20.118;2023-10-13T03:50:50;100208.70;;;13.05;87.48
35848;BME280;22332;51.954;20.118;2023-10-13T03:54:06;100213.76;;;13.05;87.59
35848;BME280;22332;51.954;20.118;2023-10-13T03:57:12;100212.38;;;13.06;87.48
35848;BME280;22332;51.954;20.118;2023-10-13T04:00:18;100210.17;;;13.05;87.29
35848;BME280;22332;51.954;20.118;2023-10-13T04:03:29;100208.61;;;13.02;87.25
35848;BME280;22332;51.954;20.118;2023-10-13T04:06:43;100214.91;;;12.98;87.14
35848;BME280;22332;51.954;20.118;2023-10-13T04:09:56;100214.02;;;12.93;87.14
35848;BME280;22332;51.954;20.118;2023-10-13T04:13:19;100207.48;;;12.90;87.17
35848;BME280;22332;51.954;20.118;2023-10-13T04:16:42;100206.28;;;12.90;86.98
35848;BME280;22332;51.954;20.118;2023-10-13T04:19:57;100202.85;;;12.90;87.03
35848;BME280;22332;51.954;20.118;2023-10-13T04:23:37;100199.85;;;12.90;86.82
35848;BME280;22332;51.954;20.118;2023-10-13T04:26:56;100202.41;;;12.86;86.84
35848;BME280;22332;51.954;20.118;2023-10-13T04:30:18;100203.52;;;12.83;86.87
35848;BME280;22332;51.954;20.118;2023-10-13T04:33:32;100205.05;;;12.79;86.84
35848;BME280;22332;51.954;20.118;2023-10-13T04:36:56;100209.09;;;12.76;87.02
35848;BME280;22332;51.954;20.118;2023-10-13T04:40:22;100213.95;;;12.77;86.97
35848;BME280;22332;51.954;20.118;2023-10-13T04:43:30;100217.73;;;12.78;86.96
35848;BME280;22332;51.954;20.118;2023-10-13T04:46:59;100214.29;;;12.81;86.83
35848;BME280;22332;51.954;20.118;2023-10-13T04:50:22;100213.42;;;12.82;86.95
35848;BME280;22332;51.954;20.118;2023-10-13T04:53:32;100218.08;;;12.80;87.03
35848;BME280;22332;51.954;20.118;2023-10-13T04:56:38;100210.08;;;12.78;86.98
35848;BME280;22332;51.954;20.118;2023-10-13T04:59:58;100207.36;;;12.79;87.02
35848;BME280;22332;51.954;20.118;2023-10-13T05:03:18;100212.02;;;12.80;87.15
35848;BME280;22332;51.954;20.118;2023-10-13T05:06:56;100205.96;;;12.83;87.06
35848;BME280;22332;51.954;20.118;2023-10-13T05:10:19;100206.25;;;12.84;87.16
35848;BME280;22332;51.954;20.118;2023-10-13T05:13:47;100206.92;;;12.84;87.16
35848;BME280;22332;51.954;20.118;2023-10-13T05:17:11;100208.69;;;12.84;87.13
35848;BME280;22332;51.954;20.118;2023-10-13T05:20:34;100211.38;;;12.88;87.14
35848;BME280;22332;51.954;20.118;2023-10-13T05:23:57;100212.80;;;12.89;87.16
35848;BME280;22332;51.954;20.118;2023-10-13T05:27:20;100219.70;;;12.91;87.23
35848;BME280;22332;51.954;20.118;2023-10-13T05:30:52;100215.61;;;12.93;87.25
35848;BME280;22332;51.954;20.118;2023-10-13T05:34:15;100218.54;;;12.92;87.22
35848;BME280;22332;51.954;20.118;2023-10-13T05:37:38;100221.89;;;12.89;87.31
35848;BME280;22332;51.954;20.118;2023-10-13T05:41:03;100226.23;;;12.92;87.28
35848;BME280;22332;51.954;20.118;2023-10-13T05:44:27;100230.11;;;12.92;87.34
35848;BME280;22332;51.954;20.118;2023-10-13T05:47:42;100224.86;;;12.93;87.27
35848;BME280;22332;51.954;20.118;2023-10-13T05:51:06;100220.54;;;12.93;87.24
35848;BME280;22332;51.954;20.118;2023-10-13T05:54:29;100220.91;;;12.93;87.20
35848;BME280;22332;51.954;20.118;2023-10-13T05:57:53;100228.31;;;12.91;87.37
35848;BME280;22332;51.954;20.118;2023-10-13T06:01:16;100223.76;;;12.90;87.48
35848;BME280;22332;51.954;20.118;2023-10-13T06:04:39;100222.73;;;12.93;87.45
35848;BME280;22332;51.954;20.118;2023-10-13T06:08:02;100224.75;;;12.96;87.55
35848;BME280;22332;51.954;20.118;2023-10-13T06:11:26;100227.06;;;12.99;87.53
35848;BME280;22332;51.954;20.118;2023-10-13T06:14:49;100231.33;;;13.03;87.48
35848;BME280;22332;51.954;20.118;2023-10-13T06:18:12;100237.39;;;13.06;87.76
35848;BME280;22332;51.954;20.118;2023-10-13T06:21:36;100237.83;;;13.05;87.53
35848;BME280;22332;51.954;20.118;2023-10-13T06:24:59;100243.86;;;13.07;87.62
35848;BME280;22332;51.954;20.118;2023-10-13T06:28:22;100247.04;;;13.09;87.53
35848;BME280;22332;51.954;20.118;2023-10-13T06:31:45;100244.79;;;13.12;87.65
35848;BME280;22332;51.954;20.118;2023-10-13T06:34:52;100240.36;;;13.14;87.69
35848;BME280;22332;51.954;20.118;2023-10-13T06:38:01;100240.19;;;13.16;87.82
35848;BME280;22332;51.954;20.118;2023-10-13T06:41:09;100237.77;;;13.19;87.69
35848;BME280;22332;51.954;20.118;2023-10-13T06:44:24;100257.33;;;13.24;87.80
35848;BME280;22332;51.954;20.118;2023-10-13T06:47:29;100257.70;;;13.29;87.96
35848;BME280;22332;51.954;20.118;2023-10-13T06:50:37;100258.61;;;13.36;87.99
35848;BME280;22332;51.954;20.118;2023-10-13T06:53:46;100257.15;;;13.43;88.07
35848;BME280;22332;51.954;20.118;2023-10-13T06:56:52;100257.14;;;13.46;88.16
35848;BME280;22332;51.954;20.118;2023-10-13T06:59:57;100259.61;;;13.49;88.22
35848;BME280;22332;51.954;20.118;2023-10-13T07:03:04;100260.93;;;13.51;88.16
35848;BME280;22332;51.954;20.118;2023-10-13T07:06:14;100259.61;;;13.57;88.21
35848;BME280;22332;51.954;20.118;2023-10-13T07:09:24;100253.56;;;13.63;88.20
35848;BME280;22332;51.954;20.118;2023-10-13T07:12:47;100257.80;;;13.70;88.39
35848;BME280;22332;51.954;20.118;2023-10-13T07:15:54;100258.99;;;13.75;88.32
35848;BME280;22332;51.954;20.118;2023-10-13T07:19:04;100254.41;;;13.81;88.53
35848;BME280;22332;51.954;20.118;2023-10-13T07:22:10;100249.84;;;13.90;88.45
35848;BME280;22332;51.954;20.118;2023-10-13T07:25:25;100249.91;;;14.03;88.52
35848;BME280;22332;51.954;20.118;2023-10-13T07:28:30;100247.61;;;14.12;88.51
35848;BME280;22332;51.954;20.118;2023-10-13T07:31:40;100243.70;;;14.20;88.48
35848;BME280;22332;51.954;20.118;2023-10-13T07:34:49;100238.36;;;14.26;88.40
35848;BME280;22332;51.954;20.118;2023-10-13T07:37:55;100236.29;;;14.31;88.45
35848;BME280;22332;51.954;20.118;2023-10-13T07:41:04;100237.74;;;14.39;88.48
35848;BME280;22332;51.954;20.118;2023-10-13T07:44:13;100237.35;;;14.48;88.35
35848;BME280;22332;51.954;20.118;2023-10-13T07:47:18;100234.45;;;14.57;88.40
35848;BME280;22332;51.954;20.118;2023-10-13T07:50:24;100230.98;;;14.61;88.15
35848;BME280;22332;51.954;20.118;2023-10-13T07:53:30;100234.77;;;14.65;88.39
35848;BME280;22332;51.954;20.118;2023-10-13T07:56:41;100228.70;;;14.68;88.16
35848;BME280;22332;51.954;20.118;2023-10-13T07:59:47;100224.02;;;14.74;88.36
35848;BME280;22332;51.954;20.118;2023-10-13T08:02:58;100224.00;;;14.83;88.38
35848;BME280;22332;51.954;20.118;2023-10-13T08:06:26;100213.77;;;14.91;88.16
35848;BME280;22332;51.954;20.118;2023-10-13T08:09:32;100204.98;;;14.96;88.21
35848;BME280;22332;51.954;20.118;2023-10-13T08:12:44;100205.71;;;15.00;88.07
35848;BME280;22332;51.954;20.118;2023-10-13T08:15:50;100208.61;;;15.06;88.19
35848;BME280;22332;51.954;20.118;2023-10-13T08:18:57;100206.74;;;15.11;88.03
35848;BME280;22332;51.954;20.118;2023-10-13T08:22:06;100210.36;;;15.15;88.17
35848;BME280;22332;51.954;20.118;2023-10-13T08:25:29;100211.71;;;15.20;87.98
35848;BME280;22332;51.954;20.118;2023-10-13T08:28:59;100209.95;;;15.22;87.82
35848;BME280;22332;51.954;20.118;2023-10-13T08:32:25;100206.16;;;15.22;87.99
35848;BME280;22332;51.954;20.118;2023-10-13T08:35:48;100206.33;;;15.22;88.16
35848;BME280;22332;51.954;20.118;2023-10-13T08:39:10;100207.36;;;15.21;88.09
35848;BME280;22332;51.954;20.118;2023-10-13T08:42:47;100203.20;;;15.25;88.18
35848;BME280;22332;51.954;20.118;2023-10-13T08:46:14;100205.11;;;15.32;88.33
35848;BME280;22332;51.954;20.118;2023-10-13T08:49:33;100201.46;;;15.42;88.43
35848;BME280;22332;51.954;20.118;2023-10-13T08:52:45;100197.98;;;15.47;88.38
35848;BME280;22332;51.954;20.118;2023-10-13T08:55:54;100196.90;;;15.53;88.48
35848;BME280;22332;51.954;20.118;2023-10-13T08:59:14;100191.80;;;15.58;88.44
35848;BME280;22332;51.954;20.118;2023-10-13T09:02:27;100190.96;;;15.64;88.53
35848;BME280;22332;51.954;20.118;2023-10-13T09:05:47;100187.85;;;15.69;88.41
35848;BME280;22332;51.954;20.118;2023-10-13T09:09:09;100181.78;;;15.75;88.62
35848;BME280;22332;51.954;20.118;2023-10-13T09:12:31;100171.27;;;15.88;88.59
35848;BME280;22332;51.954;20.118;2023-10-13T09:15:44;100169.92;;;16.08;88.72
35848;BME280;22332;51.954;20.118;2023-10-13T09:19:04;100163.71;;;16.24;88.71
35848;BME280;22332;51.954;20.118;2023-10-13T09:22:10;100166.84;;;16.40;88.76
35848;BME280;22332;51.954;20.118;2023-10-13T09:25:30;100163.88;;;16.50;88.49
35848;BME280;22332;51.954;20.118;2023-10-13T09:28:38;100160.98;;;16.59;88.49
35848;BME280;22332;51.954;20.118;2023-10-13T09:31:44;100162.91;;;16.71;88.46
35848;BME280;22332;51.954;20.118;2023-10-13T09:34:52;100161.77;;;16.81;88.59
35848;BME280;22332;51.954;20.118;2023-10-13T09:37:59;100159.48;;;16.91;88.55
35848;BME280;22332;51.954;20.118;2023-10-13T09:41:07;100163.75;;;16.97;88.42
35848;BME280;22332;51.954;20.118;2023-10-13T09:44:22;100164.44;;;17.00;88.40
35848;BME280;22332;51.954;20.118;2023-10-13T09:47:29;100163.00;;;17.01;88.35
35848;BME280;22332;51.954;20.118;2023-10-13T09:50:42;100156.87;;;16.97;88.22
35848;BME280;22332;51.954;20.118;2023-10-13T09:53:52;100153.27;;;16.97;88.30
35848;BME280;22332;51.954;20.118;2023-10-13T09:57:10;100152.76;;;17.02;88.51
35848;BME280;22332;51.954;20.118;2023-10-13T10:00:21;100148.26;;;17.12;88.63
35848;BME280;22332;51.954;20.118;2023-10-13T10:03:49;100148.20;;;17.32;88.55
35848;BME280;22332;51.954;20.118;2023-10-13T10:07:12;100145.52;;;17.54;88.48
35848;BME280;22332;51.954;20.118;2023-10-13T10:10:47;100141.50;;;17.70;88.36
35848;BME280;22332;51.954;20.118;2023-10-13T10:14:10;100135.88;;;17.77;88.08
35848;BME280;22332;51.954;20.118;2023-10-13T10:17:19;100130.52;;;17.85;88.19
35848;BME280;22332;51.954;20.118;2023-10-13T10:20:33;100123.99;;;17.95;87.95
35848;BME280;22332;51.954;20.118;2023-10-13T10:23:53;100115.65;;;17.99;87.61
35848;BME280;22332;51.954;20.118;2023-10-13T10:26:59;100105.97;;;17.95;87.43
35848;BME280;22332;51.954;20.118;2023-10-13T10:30:06;100103.64;;;17.92;87.46
35848;BME280;22332;51.954;20.118;2023-10-13T10:33:17;100102.80;;;17.91;87.61
35848;BME280;22332;51.954;20.118;2023-10-13T10:36:31;100099.23;;;17.93;87.97
35848;BME280;22332;51.954;20.118;2023-10-13T10:39:37;100093.09;;;17.97;87.84
35848;BME280;22332;51.954;20.118;2023-10-13T10:42:53;100091.61;;;18.03;87.50
35848;BME280;22332;51.954;20.118;2023-10-13T10:46:00;100084.80;;;18.04;87.15
35848;BME280;22332;51.954;20.118;2023-10-13T10:49:06;100080.77;;;18.03;87.17
35848;BME280;22332;51.954;20.118;2023-10-13T10:52:16;100076.70;;;18.01;86.89
35848;BME280;22332;51.954;20.118;2023-10-13T10:55:23;100073.59;;;17.98;87.14
35848;BME280;22332;51.954;20.118;2023-10-13T10:58:35;100071.91;;;17.96;87.18
35848;BME280;22332;51.954;20.118;2023-10-13T11:01:48;100066.52;;;17.97;87.12
35848;BME280;22332;51.954;20.118;2023-10-13T11:04:55;100061.98;;;17.98;87.25
35848;BME280;22332;51.954;20.118;2023-10-13T11:08:02;100054.73;;;18.01;87.25
35848;BME280;22332;51.954;20.118;2023-10-13T11:11:16;100047.42;;;18.03;87.38
35848;BME280;22332;51.954;20.118;2023-10-13T11:14:24;100041.98;;;18.07;87.51
35848;BME280;22332;51.954;20.118;2023-10-13T11:17:30;100040.27;;;18.09;87.39
35848;BME280;22332;51.954;20.118;2023-10-13T11:20:47;100037.78;;;18.09;87.43
35848;BME280;22332;51.954;20.118;2023-10-13T11:23:59;100037.70;;;18.17;87.53
35848;BME280;22332;51.954;20.118;2023-10-13T11:27:19;100039.10;;;18.30;87.67
35848;BME280;22332;51.954;20.118;2023-10-13T11:30:26;100034.27;;;18.45;87.71
35848;BME280;22332;51.954;20.118;2023-10-13T11:33:46;100035.66;;;18.58;87.40
35848;BME280;22332;51.954;20.118;2023-10-13T11:36:52;100027.23;;;18.69;87.27
35848;BME280;22332;51.954;20.118;2023-10-13T11:39:57;100020.74;;;18.78;87.33
35848;BME280;22332;51.954;20.118;2023-10-13T11:43:03;100019.64;;;18.87;87.50
35848;BME280;22332;51.954;20.118;2023-10-13T11:46:09;100012.54;;;18.97;87.31
35848;BME280;22332;51.954;20.118;2023-10-13T11:49:19;100009.80;;;19.02;87.17
35848;BME280;22332;51.954;20.118;2023-10-13T11:52:36;100006.27;;;19.07;87.40
35848;BME280;22332;51.954;20.118;2023-10-13T11:55:41;99995.31;;;19.14;87.28
35848;BME280;22332;51.954;20.118;2023-10-13T11:58:47;99987.97;;;19.20;86.90
35848;BME280;22332;51.954;20.118;2023-10-13T12:01:53;99991.39;;;19.26;86.79
35848;BME280;22332;51.954;20.118;2023-10-13T12:05:17;99996.89;;;19.27;86.76
35848;BME280;22332;51.954;20.118;2023-10-13T12:08:32;99994.73;;;19.25;86.88
35848;BME280;22332;51.954;20.118;2023-10-13T12:11:43;99978.48;;;19.34;86.71
35848;BME280;22332;51.954;20.118;2023-10-13T12:14:49;99974.25;;;19.45;86.32
35848;BME280;22332;51.954;20.118;2023-10-13T12:17:59;99972.40;;;19.53;85.51
35848;BME280;22332;51.954;20.118;2023-10-13T12:21:10;99969.34;;;19.51;84.86
35848;BME280;22332;51.954;20.118;2023-10-13T12:24:24;99959.04;;;19.59;84.88
35848;BME280;22332;51.954;20.118;2023-10-13T12:27:44;99949.90;;;19.68;84.54
35848;BME280;22332;51.954;20.118;2023-10-13T12:30:52;99957.63;;;19.78;84.40
35848;BME280;22332;51.954;20.118;2023-10-13T12:33:58;99965.89;;;19.87;84.31
35848;BME280;22332;51.954;20.118;2023-10-13T12:37:10;99970.62;;;19.89;84.24
35848;BME280;22332;51.954;20.118;2023-10-13T12:40:36;99967.12;;;19.80;83.87
35848;BME280;22332;51.954;20.118;2023-10-13T12:43:59;99967.00;;;19.69;83.93
35848;BME280;22332;51.954;20.118;2023-10-13T12:47:22;99959.70;;;19.65;83.88
35848;BME280;22332;51.954;20.118;2023-10-13T12:50:45;99963.77;;;19.67;84.03
35848;BME280;22332;51.954;20.118;2023-10-13T12:54:11;99949.89;;;19.68;83.82
35848;BME280;22332;51.954;20.118;2023-10-13T12:57:24;99943.88;;;19.64;83.82
35848;BME280;22332;51.954;20.118;2023-10-13T13:00:30;99940.69;;;19.57;83.79
35848;BME280;22332;51.954;20.118;2023-10-13T13:03:37;99924.29;;;19.52;83.68
35848;BME280;22332;51.954;20.118;2023-10-13T13:06:49;99925.20;;;19.52;83.74
35848;BME280;22332;51.954;20.118;2023-10-13T13:09:55;99916.11;;;19.54;83.46
35848;BME280;22332;51.954;20.118;2023-10-13T13:13:07;99918.70;;;19.58;83.34
35848;BME280;22332;51.954;20.118;2023-10-13T13:16:13;99922.29;;;19.62;83.21
35848;BME280;22332;51.954;20.118;2023-10-13T13:19:19;99919.35;;;19.66;83.04
35848;BME280;22332;51.954;20.118;2023-10-13T13:22:30;99914.19;;;19.66;82.94
35848;BME280;22332;51.954;20.118;2023-10-13T13:25:36;99913.67;;;19.66;82.88
35848;BME280;22332;51.954;20.118;2023-10-13T13:28:47;99910.36;;;19.65;82.70
35848;BME280;22332;51.954;20.118;2023-10-13T13:31:55;99907.92;;;19.63;82.59
35848;BME280;22332;51.954;20.118;2023-10-13T13:35:00;99904.81;;;19.61;82.41
35848;BME280;22332;51.954;20.118;2023-10-13T13:38:09;99903.45;;;19.59;82.45
35848;BME280;22332;51.954;20.118;2023-10-13T13:41:21;99905.41;;;19.59;82.30
35848;BME280;22332;51.954;20.118;2023-10-13T13:44:26;99905.98;;;19.59;82.14
35848;BME280;22332;51.954;20.118;2023-10-13T13:47:39;99899.77;;;19.56;82.07
35848;BME280;22332;51.954;20.118;2023-10-13T13:50:45;99897.73;;;19.51;82.06
35848;BME280;22332;51.954;20.118;2023-10-13T13:53:57;99897.52;;;19.45;82.03
35848;BME280;22332;51.954;20.118;2023-10-13T13:57:03;99893.00;;;19.39;81.96
35848;BME280;22332;51.954;20.118;2023-10-13T14:00:12;99889.10;;;19.31;82.14
35848;BME280;22332;51.954;20.118;2023-10-13T14:03:21;99892.36;;;19.23;82.17
35848;BME280;22332;51.954;20.118;2023-10-13T14:06:36;99885.45;;;19.18;82.31
35848;BME280;22332;51.954;20.118;2023-10-13T14:09:42;99879.69;;;19.16;82.24
35848;BME280;22332;51.954;20.118;2023-10-13T14:12:48;99872.89;;;19.14;82.22
35848;BME280;22332;51.954;20.118;2023-10-13T14:15:54;99875.21;;;19.12;82.12
35848;BME280;22332;51.954;20.118;2023-10-13T14:19:01;99868.86;;;19.10;82.17
35848;BME280;22332;51.954;20.118;2023-10-13T14:22:11;99855.77;;;19.07;82.11
35848;BME280;22332;51.954;20.118;2023-10-13T14:25:18;99850.43;;;19.02;82.30
35848;BME280;22332;51.954;20.118;2023-10-13T14:28:28;99855.14;;;18.97;82.31
35848;BME280;22332;51.954;20.118;2023-10-13T14:31:39;99850.95;;;18.94;82.21
35848;BME280;22332;51.954;20.118;2023-10-13T14:34:46;99848.11;;;18.90;82.27
35848;BME280;22332;51.954;20.118;2023-10-13T14:37:58;99844.60;;;18.87;82.22
35848;BME280;22332;51.954;20.118;2023-10-13T14:41:04;99844.04;;;18.82;82.19
35848;BME280;22332;51.954;20.118;2023-10-13T14:44:10;99839.63;;;18.78;82.33
35848;BME280;22332;51.954;20.118;2023-10-13T14:47:17;99835.16;;;18.73;82.19
35848;BME280;22332;51.954;20.118;2023-10-13T14:50:22;99834.70;;;18.67;82.35
35848;BME280;22332;51.954;20.118;2023-10-13T14:53:29;99834.41;;;18.59;82.37
35848;BME280;22332;51.954;20.118;2023-10-13T14:56:35;99834.02;;;18.53;82.48
35848;BME280;22332;51.954;20.118;2023-10-13T14:59:41;99828.60;;;18.49;82.59
35848;BME280;22332;51.954;20.118;2023-10-13T15:02:48;99827.27;;;18.47;82.50
35848;BME280;22332;51.954;20.118;2023-10-13T15:05:54;99820.02;;;18.44;82.62
35848;BME280;22332;51.954;20.118;2023-10-13T15:09:01;99817.20;;;18.41;82.52
35848;BME280;22332;51.954;20.118;2023-10-13T15:12:08;99814.11;;;18.37;82.61
35848;BME280;22332;51.954;20.118;2023-10-13T15:15:15;99812.88;;;18.34;82.71
35848;BME280;22332;51.954;20.118;2023-10-13T15:18:21;99808.61;;;18.32;82.72
35848;BME280;22332;51.954;20.118;2023-10-13T15:21:29;99809.31;;;18.31;82.64
35848;BME280;22332;51.954;20.118;2023-10-13T15:24:38;99803.47;;;18.29;82.66
35848;BME280;22332;51.954;20.118;2023-10-13T15:27:49;99797.88;;;18.25;82.70
35848;BME280;22332;51.954;20.118;2023-10-13T15:30:59;99792.63;;;18.19;82.73
35848;BME280;22332;51.954;20.118;2023-10-13T15:34:14;99788.59;;;18.12;82.77
35848;BME280;22332;51.954;20.118;2023-10-13T15:37:23;99779.38;;;18.05;82.97
35848;BME280;22332;51.954;20.118;2023-10-13T15:40:29;99779.70;;;18.01;82.93
35848;BME280;22332;51.954;20.118;2023-10-13T15:43:35;99778.79;;;17.99;83.04
35848;BME280;22332;51.954;20.118;2023-10-13T15:46:44;99774.77;;;17.97;83.12
35848;BME280;22332;51.954;20.118;2023-10-13T15:49:52;99771.02;;;17.92;83.08
35848;BME280;22332;51.954;20.118;2023-10-13T15:52:58;99772.77;;;17.87;83.14
35848;BME280;22332;51.954;20.118;2023-10-13T15:56:07;99777.23;;;17.80;83.30
35848;BME280;22332;51.954;20.118;2023-10-13T15:59:16;99773.55;;;17.75;83.45
35848;BME280;22332;51.954;20.118;2023-10-13T16:02:22;99770.48;;;17.72;83.42
35848;BME280;22332;51.954;20.118;2023-10-13T16:05:32;99764.03;;;17.71;83.62
35848;BME280;22332;51.954;20.118;2023-10-13T16:08:39;99755.15;;;17.68;83.62
35848;BME280;22332;51.954;20.118;2023-10-13T16:11:47;99754.82;;;17.65;83.72
35848;BME280;22332;51.954;20.118;2023-10-13T16:14:52;99746.95;;;17.59;83.74
35848;BME280;22332;51.954;20.118;2023-10-13T16:17:59;99744.11;;;17.54;83.85
35848;BME280;22332;51.954;20.118;2023-10-13T16:21:07;99742.08;;;17.51;83.97
35848;BME280;22332;51.954;20.118;2023-10-13T16:24:13;99737.77;;;17.48;84.03
35848;BME280;22332;51.954;20.118;2023-10-13T16:27:21;99721.63;;;17.45;84.05
35848;BME280;22332;51.954;20.118;2023-10-13T16:30:27;99710.27;;;17.41;84.14
35848;BME280;22332;51.954;20.118;2023-10-13T16:33:33;99706.22;;;17.36;84.21